Time;durP1;ratioP1;P1;durP2;ratioP2;P2;SDS_P1;SDS_P2;PMS_P1;PMS_P2;Temp;Humidity;BMP_temperature;BMP_pressure;BME280_temperature;BME280_humidity;BME280_pressure;Samples;Min_cycle;Max_cycle;Signal;HPM_P1;HPM_P2
2023/07/08 00:01:59;;;;;;;7.77;5.60;;;;;;;23.27;37.46;157350.88;4961742;28;20451;-82
2023/07/08 00:04:26;;;;;;;6.70;5.33;;;;;;;23.28;37.39;157354.78;4948401;28;20824;-82
2023/07/08 00:06:53;;;;;;;6.57;5.20;;;;;;;23.33;36.97;157366.53;4982812;28;20454;-82
2023/07/08 00:09:19;;;;;;;6.27;5.50;;;;;;;23.37;37.13;157377.06;4967953;28;20465;-82
2023/07/08 00:11:47;;;;;;;6.67;5.50;;;;;;;23.29;37.28;157356.09;4961438;28;20826;-82
2023/07/08 00:14:14;;;;;;;8.77;5.47;;;;;;;23.26;37.10;157348.25;4974717;28;20478;-82
2023/07/08 00:16:40;;;;;;;7.63;5.90;;;;;;;23.26;37.24;157348.25;4969558;28;20482;-82
2023/07/08 00:19:10;;;;;;;7.07;5.60;;;;;;;23.19;37.13;157329.97;4967454;28;20854;-82
2023/07/08 00:21:37;;;;;;;7.50;5.60;;;;;;;23.19;37.24;157331.28;4946324;28;21033;-82
2023/07/08 00:24:03;;;;;;;7.40;6.00;;;;;;;23.26;37.35;157349.56;4979014;28;21028;-82
2023/07/08 00:26:31;;;;;;;8.07;6.27;;;;;;;23.22;37.23;157339.06;4963307;28;20992;-82
2023/07/08 00:29:01;;;;;;;7.27;5.80;;;;;;;23.23;37.30;157341.72;4942145;28;21056;-81
2023/07/08 00:31:31;;;;;;;7.93;5.33;;;;;;;23.20;37.38;157332.53;4958933;28;20875;-81
2023/07/08 00:33:58;;;;;;;6.53;5.93;;;;;;;23.20;37.22;157333.88;4958524;28;21072;-81
2023/07/08 00:36:26;;;;;;;10.60;6.27;;;;;;;23.24;37.07;157343.03;4965616;28;20488;-81
2023/07/08 00:38:53;;;;;;;6.40;5.80;;;;;;;23.21;37.41;157335.19;4966244;28;20703;-81
2023/07/08 00:41:23;;;;;;;6.67;5.80;;;;;;;23.14;37.49;157316.91;4967946;28;20537;-81
2023/07/08 00:43:51;;;;;;;7.27;5.73;;;;;;;23.09;37.57;157303.84;4968830;28;20478;-81
2023/07/08 00:46:32;;;;;;;7.13;5.60;;;;;;;23.03;37.86;157290.72;4949532;28;20458;-81
2023/07/08 00:49:03;;;;;;;7.10;6.00;;;;;;;23.00;37.45;157282.94;4962713;28;20815;-80
2023/07/08 00:51:29;;;;;;;7.27;5.60;;;;;;;22.96;37.48;157272.44;4977130;28;20486;-81
2023/07/08 00:53:56;;;;;;;9.13;5.70;;;;;;;22.98;37.69;157276.41;4965976;28;20470;-81
2023/07/08 00:56:27;;;;;;;7.00;6.00;;;;;;;23.07;37.69;157298.56;4966177;28;20478;-81
2023/07/08 00:58:58;;;;;;;6.67;5.50;;;;;;;23.05;37.46;157294.69;4964596;28;20483;-81
2023/07/08 01:01:26;;;;;;;7.83;5.37;;;;;;;22.96;37.27;157271.13;4957053;28;20498;-81
2023/07/08 01:03:57;;;;;;;7.67;5.83;;;;;;;22.92;37.61;157262.03;4977467;28;20451;-80
2023/07/08 01:06:31;;;;;;;7.53;6.03;;;;;;;22.88;37.96;157251.53;4996260;28;20965;-81
2023/07/08 01:08:58;;;;;;;7.20;5.90;;;;;;;22.89;37.52;157252.84;4949319;28;20978;-81
2023/07/08 01:11:25;;;;;;;7.40;5.50;;;;;;;22.85;37.43;157243.69;4980477;28;20818;-82
2023/07/08 01:13:53;;;;;;;7.97;5.30;;;;;;;22.81;37.82;157233.25;4980698;28;20493;-82
2023/07/08 01:16:19;;;;;;;6.47;5.17;;;;;;;22.81;37.59;157233.25;4978159;28;20482;-82
2023/07/08 01:18:52;;;;;;;6.20;5.40;;;;;;;22.78;37.55;157225.41;4976945;28;20465;-82
2023/07/08 01:21:34;;;;;;;6.20;5.60;;;;;;;22.74;38.25;157213.69;4964599;28;20891;-82
2023/07/08 01:24:05;;;;;;;6.90;5.43;;;;;;;22.71;37.99;157205.84;4965742;28;20459;-82
2023/07/08 01:26:34;;;;;;;6.83;5.47;;;;;;;22.69;37.90;157201.88;4968352;28;20441;-81
2023/07/08 01:29:01;;;;;;;6.20;5.37;;;;;;;22.68;37.96;157197.97;4947984;28;20447;-81
2023/07/08 01:31:28;;;;;;;9.27;5.80;;;;;;;22.65;37.63;157191.47;4981435;28;20443;-81
2023/07/08 01:33:54;;;;;;;8.47;6.10;;;;;;;22.64;38.23;157187.50;4949053;28;20481;-81
2023/07/08 01:36:23;;;;;;;8.00;5.87;;;;;;;22.61;38.39;157179.66;4981523;28;20827;-81
2023/07/08 01:38:50;;;;;;;6.50;5.67;;;;;;;22.58;37.89;157171.81;4981886;28;20478;-81
2023/07/08 01:41:18;;;;;;;7.43;6.13;;;;;;;22.58;38.33;157173.13;4965711;28;20489;-81
2023/07/08 01:43:45;;;;;;;5.93;5.30;;;;;;;22.55;38.41;157165.28;4978507;28;20457;-81
2023/07/08 01:46:15;;;;;;;6.70;5.47;;;;;;;22.51;38.37;157153.50;4975255;28;20458;-81
2023/07/08 01:48:45;;;;;;;7.07;5.70;;;;;;;22.47;38.54;157143.06;4965783;28;20458;-81
2023/07/08 01:51:12;;;;;;;6.53;5.37;;;;;;;22.40;38.63;157126.06;4964753;28;20537;-81
2023/07/08 01:53:41;;;;;;;6.97;5.90;;;;;;;22.35;38.37;157113.00;4971790;28;21037;-81
2023/07/08 01:56:09;;;;;;;6.77;5.90;;;;;;;22.30;39.09;157099.94;4967202;28;20935;-81
2023/07/08 01:58:37;;;;;;;7.00;5.77;;;;;;;22.25;39.18;157086.91;4983655;28;20486;-81
2023/07/08 02:01:04;;;;;;;6.67;5.63;;;;;;;22.20;39.46;157073.84;4951927;28;20462;-81
2023/07/08 02:03:31;;;;;;;6.90;5.50;;;;;;;22.18;39.20;157069.94;4987384;28;20455;-81
2023/07/08 02:05:58;;;;;;;5.63;5.03;;;;;;;22.17;39.31;157066.00;4965740;28;20493;-82
2023/07/08 02:08:24;;;;;;;7.60;5.80;;;;;;;22.15;39.24;157062.09;4973074;28;20457;-81
2023/07/08 02:10:53;;;;;;;6.30;5.70;;;;;;;22.14;39.33;157059.47;4968825;28;20462;-81
2023/07/08 02:13:21;;;;;;;7.90;5.87;;;;;;;22.15;39.73;157060.78;4955177;28;20483;-80
2023/07/08 02:15:49;;;;;;;7.30;5.33;;;;;;;22.13;39.41;157055.56;4970605;28;20470;-81
2023/07/08 02:18:18;;;;;;;6.97;5.50;;;;;;;22.12;39.52;157052.94;4954508;28;20494;-81
2023/07/08 02:20:45;;;;;;;8.20;5.93;;;;;;;22.10;39.77;157047.72;4976880;28;20946;-81
2023/07/08 02:23:12;;;;;;;7.90;5.80;;;;;;;22.08;39.48;157042.53;4969855;28;21003;-81
2023/07/08 02:25:38;;;;;;;7.10;6.10;;;;;;;22.06;39.78;157038.56;4985117;28;20442;-81
2023/07/08 02:28:05;;;;;;;7.87;5.20;;;;;;;22.07;39.62;157039.88;4968719;28;20479;-81
2023/07/08 02:30:31;;;;;;;6.53;5.77;;;;;;;22.06;39.65;157038.56;4968670;28;20489;-81
2023/07/08 02:33:00;;;;;;;7.17;6.27;;;;;;;22.07;39.51;157039.88;4984891;28;20482;-82
2023/07/08 02:35:29;;;;;;;6.60;5.13;;;;;;;22.05;39.66;157034.69;4980071;28;20795;-81
2023/07/08 02:37:57;;;;;;;6.60;5.50;;;;;;;22.01;39.69;157024.22;4982375;28;20597;-81
2023/07/08 02:40:24;;;;;;;8.70;5.53;;;;;;;21.99;39.90;157020.31;4954481;28;20470;-80
2023/07/08 02:42:50;;;;;;;8.13;5.30;;;;;;;21.98;40.04;157017.69;4968528;28;20461;-81
2023/07/08 02:45:17;;;;;;;6.70;6.00;;;;;;;22.00;39.57;157021.63;4970089;28;20506;-81
2023/07/08 02:47:44;;;;;;;6.80;5.80;;;;;;;21.99;39.84;157019.00;4985967;28;20431;-81
2023/07/08 02:50:13;;;;;;;7.17;6.00;;;;;;;21.99;39.72;157019.00;4982936;28;20446;-81
2023/07/08 02:52:39;;;;;;;6.70;5.23;;;;;;;22.00;39.90;157021.63;4953574;28;20486;-81
2023/07/08 02:55:07;;;;;;;7.50;5.80;;;;;;;22.00;40.10;157021.63;4969203;28;20774;-81
2023/07/08 02:57:34;;;;;;;8.93;5.30;;;;;;;22.01;39.50;157024.22;4980346;28;20544;-81
2023/07/08 03:00:00;;;;;;;8.13;6.40;;;;;;;22.03;39.91;157030.72;4979013;28;20518;-81
2023/07/08 03:02:27;;;;;;;6.97;5.73;;;;;;;22.04;39.69;157032.03;4965852;28;20471;-81
2023/07/08 03:04:54;;;;;;;6.27;5.37;;;;;;;22.07;39.71;157039.88;4966497;28;20543;-81
2023/07/08 03:07:22;;;;;;;6.70;5.87;;;;;;;22.03;40.15;157029.47;4969192;28;20461;-81
2023/07/08 03:09:48;;;;;;;9.27;6.30;;;;;;;21.92;40.69;157000.72;4950934;28;20545;-82
2023/07/08 03:12:15;;;;;;;7.27;5.50;;;;;;;21.84;41.02;156982.38;4977940;28;20459;-83
2023/07/08 03:14:42;;;;;;;7.17;5.50;;;;;;;21.77;41.49;156964.09;4980634;28;20451;-81
2023/07/08 03:17:08;;;;;;;7.17;6.30;;;;;;;21.71;41.64;156948.44;4968912;28;20477;-81
2023/07/08 03:19:35;;;;;;;6.97;6.10;;;;;;;21.67;41.54;156936.69;4962396;28;20525;-81
2023/07/08 03:22:04;;;;;;;7.60;6.47;;;;;;;21.64;41.71;156930.16;4982253;28;21012;-81
2023/07/08 03:24:32;;;;;;;6.80;6.10;;;;;;;21.64;41.90;156928.84;4969951;28;20446;-82
2023/07/08 03:27:04;;;;;;;7.23;5.63;;;;;;;21.61;42.21;156921.00;4969663;28;21025;-82
2023/07/08 03:29:33;;;;;;;6.53;5.67;;;;;;;21.55;42.41;156906.66;4967104;28;20465;-81
2023/07/08 03:32:00;;;;;;;8.13;5.50;;;;;;;21.53;42.21;156901.44;4948036;28;20537;-81
2023/07/08 03:34:27;;;;;;;5.83;5.03;;;;;;;21.49;42.61;156891.03;4966181;28;20486;-81
2023/07/08 03:36:55;;;;;;;6.83;6.13;;;;;;;21.48;42.89;156888.38;4968160;28;20476;-81
2023/07/08 03:39:24;;;;;;;7.60;6.20;;;;;;;21.46;42.61;156883.19;4997596;28;21187;-81
2023/07/08 03:41:52;;;;;;;6.80;5.70;;;;;;;21.48;42.65;156888.38;4963108;28;20462;-81
2023/07/08 03:44:20;;;;;;;8.07;6.03;;;;;;;21.53;42.73;156901.44;4950042;29;20709;-81
2023/07/08 03:46:49;;;;;;;6.37;5.33;;;;;;;21.56;42.66;156909.28;4968379;28;20493;-81
2023/07/08 03:49:21;;;;;;;6.63;5.43;;;;;;;21.56;42.43;156909.28;4963924;28;20470;-81
2023/07/08 03:51:49;;;;;;;6.67;5.20;;;;;;;21.59;42.54;156915.81;4966205;28;20444;-81
2023/07/08 03:54:19;;;;;;;6.20;5.60;;;;;;;21.64;42.63;156930.16;4956703;28;20861;-81
2023/07/08 03:56:46;;;;;;;6.70;5.67;;;;;;;21.68;43.00;156940.59;4981243;28;20447;-81
2023/07/08 03:59:15;;;;;;;8.30;5.57;;;;;;;21.71;42.66;156947.16;4977308;28;21064;-81
2023/07/08 04:01:42;;;;;;;9.30;5.67;;;;;;;21.72;43.09;156949.75;4970157;28;20628;-81
2023/07/08 04:04:12;;;;;;;6.03;5.20;;;;;;;21.72;43.26;156949.75;4964960;28;20572;-81
2023/07/08 04:06:39;;;;;;;6.63;5.30;;;;;;;21.72;43.28;156951.06;4972472;28;20806;-81
2023/07/08 04:09:07;;;;;;;6.33;5.47;;;;;;;21.72;43.11;156951.06;4954840;28;20513;-81
2023/07/08 04:11:34;;;;;;;6.60;5.43;;;;;;;21.71;42.98;156948.44;4965056;28;20481;-80
2023/07/08 04:14:00;;;;;;;6.17;5.47;;;;;;;21.75;43.60;156957.59;4963108;28;20474;-81
2023/07/08 04:16:31;;;;;;;7.60;5.50;;;;;;;21.78;43.72;156966.75;4966228;28;20454;-81
2023/07/08 04:18:57;;;;;;;6.60;5.47;;;;;;;21.85;43.67;156983.69;4965900;28;20977;-80
2023/07/08 04:21:25;;;;;;;6.53;5.63;;;;;;;21.96;43.28;157012.47;4966775;28;20451;-80
2023/07/08 04:23:52;;;;;;;7.70;5.93;;;;;;;22.11;43.40;157051.63;4951099;28;21157;-82
2023/07/08 04:26:20;;;;;;;6.80;5.50;;;;;;;22.27;42.91;157092.13;4968389;28;20981;-81
2023/07/08 04:28:47;;;;;;;6.40;5.67;;;;;;;22.45;42.75;157139.16;4993500;28;20997;-81
2023/07/08 04:31:13;;;;;;;7.63;6.10;;;;;;;22.58;42.50;157173.13;4963311;28;20462;-81
2023/07/08 04:33:42;;;;;;;6.07;5.43;;;;;;;22.72;42.74;157208.41;4941344;28;20491;-80
2023/07/08 04:36:12;;;;;;;6.53;5.43;;;;;;;22.88;42.39;157250.22;4999411;28;20490;-81
2023/07/08 04:38:41;;;;;;;8.57;6.00;;;;;;;23.06;42.42;157296.00;4968246;28;20475;-81
2023/07/08 04:41:08;;;;;;;7.80;5.47;;;;;;;23.29;42.05;157356.09;4967430;28;20854;-81
2023/07/08 04:43:35;;;;;;;7.23;5.77;;;;;;;23.50;41.84;157411.03;4948560;28;20463;-81
2023/07/08 04:46:01;;;;;;;6.67;5.40;;;;;;;23.69;41.92;157459.41;4981052;28;20829;-81
2023/07/08 04:48:28;;;;;;;6.73;6.03;;;;;;;23.89;41.92;157511.69;4983305;28;20457;-81
2023/07/08 04:50:57;;;;;;;7.73;6.07;;;;;;;24.09;41.55;157565.34;4967950;28;20463;-81
2023/07/08 04:53:24;;;;;;;6.80;6.07;;;;;;;24.26;40.47;157607.19;4968668;28;20948;-81
2023/07/08 04:55:52;;;;;;;6.30;5.70;;;;;;;24.39;39.61;157641.19;4967890;28;20613;-81
2023/07/08 04:58:18;;;;;;;7.63;6.00;;;;;;;24.38;39.87;157638.59;4962450;28;20521;-81
2023/07/08 05:00:45;;;;;;;7.73;6.30;;;;;;;24.43;39.74;157651.69;4980549;28;20474;-81
2023/07/08 05:03:12;;;;;;;7.23;5.73;;;;;;;24.49;39.68;157667.38;4967578;28;20465;-81
2023/07/08 05:05:38;;;;;;;5.87;5.27;;;;;;;24.62;39.43;157701.38;4959456;28;20470;-81
2023/07/08 05:08:07;;;;;;;9.00;6.40;;;;;;;24.75;39.85;157735.41;4972816;28;20463;-81
2023/07/08 05:10:33;;;;;;;6.33;5.20;;;;;;;24.88;39.32;157769.47;4961101;28;20532;-81
2023/07/08 05:13:00;;;;;;;7.40;5.53;;;;;;;25.04;39.52;157810.00;4975014;28;20447;-82
2023/07/08 05:15:29;;;;;;;6.17;5.23;;;;;;;25.16;39.09;157842.72;4959582;28;20526;-82
2023/07/08 05:17:59;;;;;;;6.77;6.10;;;;;;;25.28;38.62;157874.09;4981022;28;20494;-81
2023/07/08 05:20:26;;;;;;;6.80;5.93;;;;;;;25.42;38.66;157909.44;4979922;28;20870;-81
2023/07/08 05:22:53;;;;;;;7.83;6.67;;;;;;;25.50;38.81;157929.13;4978826;28;21389;-81
2023/07/08 05:25:21;;;;;;;7.17;5.47;;;;;;;25.40;38.48;157905.53;4976811;28;20821;-81
2023/07/08 05:27:48;;;;;;;6.87;6.17;;;;;;;25.49;38.42;157926.53;4965614;28;20442;-81
2023/07/08 05:30:16;;;;;;;6.50;5.37;;;;;;;25.36;39.00;157895.03;4964513;28;20455;-82
2023/07/08 05:32:42;;;;;;;7.40;5.90;;;;;;;25.13;39.04;157834.84;4960855;28;20458;-81
2023/07/08 05:35:09;;;;;;;6.87;6.17;;;;;;;24.93;39.38;157782.53;4961619;28;20508;-81
2023/07/08 05:37:36;;;;;;;6.00;5.43;;;;;;;24.75;40.52;157735.41;4980208;28;20447;-81
2023/07/08 05:40:04;;;;;;;7.50;5.97;;;;;;;24.65;41.61;157709.19;4977678;28;20467;-81
2023/07/08 05:42:32;;;;;;;6.20;5.60;;;;;;;24.55;41.77;157683.03;4979631;28;20807;-81
2023/07/08 05:44:59;;;;;;;7.17;6.47;;;;;;;24.50;42.10;157669.97;4980345;28;20467;-82
2023/07/08 05:47:26;;;;;;;6.27;5.67;;;;;;;24.46;42.43;157660.84;4964827;28;20513;-81
2023/07/08 05:49:52;;;;;;;6.70;5.80;;;;;;;24.45;42.35;157656.91;4962626;28;20458;-81
2023/07/08 05:52:19;;;;;;;6.50;5.67;;;;;;;24.51;43.27;157672.59;4976160;28;20956;-81
2023/07/08 05:54:46;;;;;;;8.37;6.10;;;;;;;24.57;43.04;157689.59;4978665;28;20493;-81
2023/07/08 05:57:13;;;;;;;7.13;5.97;;;;;;;24.63;42.85;157705.28;4979979;28;20470;-81
2023/07/08 05:59:43;;;;;;;8.03;5.80;;;;;;;24.78;43.39;157743.25;4979401;28;20920;-82
2023/07/08 06:02:11;;;;;;;7.40;6.60;;;;;;;24.91;43.13;157777.31;4976891;28;20446;-81
2023/07/08 06:04:38;;;;;;;7.40;5.83;;;;;;;24.95;43.28;157786.44;4962705;28;20882;-81
2023/07/08 06:07:05;;;;;;;7.87;6.10;;;;;;;24.99;43.08;157798.25;4964489;28;20565;-81
2023/07/08 06:09:34;;;;;;;9.33;7.03;;;;;;;25.07;42.42;157817.88;4963790;28;20466;-81
2023/07/08 06:12:01;;;;;;;6.93;6.10;;;;;;;25.11;42.74;157829.63;4962593;28;20458;-82
2023/07/08 06:14:28;;;;;;;8.70;5.60;;;;;;;25.15;43.00;157840.09;4976623;28;20837;-81
2023/07/08 06:16:59;;;;;;;8.30;6.67;;;;;;;25.28;42.91;157874.09;4978269;28;20450;-82
2023/07/08 06:19:26;;;;;;;7.40;6.00;;;;;;;25.56;41.82;157944.84;4979895;28;20493;-82
2023/07/08 06:21:52;;;;;;;9.40;6.27;;;;;;;25.87;41.50;158026.00;4958055;28;20460;-82
2023/07/08 06:24:19;;;;;;;8.40;6.20;;;;;;;26.13;40.48;158094.16;4980036;28;20958;-81
2023/07/08 06:26:45;;;;;;;6.93;5.87;;;;;;;26.30;40.39;158138.66;4982348;28;20462;-82
2023/07/08 06:29:15;;;;;;;6.63;5.70;;;;;;;26.38;40.09;158159.63;4969195;28;20509;-82
2023/07/08 06:31:42;;;;;;;7.93;6.10;;;;;;;26.40;39.80;158163.53;4968993;28;20790;-81
2023/07/08 06:34:10;;;;;;;9.83;6.20;;;;;;;26.31;39.45;158141.31;4966623;28;20853;-82
2023/07/08 06:36:37;;;;;;;5.80;5.30;;;;;;;26.17;39.89;158104.63;4978734;28;20579;-80
2023/07/08 06:39:06;;;;;;;7.63;6.10;;;;;;;26.05;40.25;158073.16;4965381;28;20544;-80
2023/07/08 06:41:33;;;;;;;6.90;6.20;;;;;;;25.98;40.56;158054.81;4978500;28;20437;-80
2023/07/08 06:44:00;;;;;;;7.00;5.83;;;;;;;25.96;41.16;158050.91;4977100;28;20449;-80
2023/07/08 06:46:29;;;;;;;6.50;5.40;;;;;;;25.92;41.32;158039.13;4959986;28;20455;-80
2023/07/08 06:48:55;;;;;;;6.10;5.10;;;;;;;25.99;41.20;158057.44;4978580;28;20464;-80
2023/07/08 06:51:23;;;;;;;7.30;6.07;;;;;;;26.10;41.31;158086.25;4975921;28;21204;-80
2023/07/08 06:53:50;;;;;;;6.43;5.37;;;;;;;26.21;40.90;158115.06;4976265;28;20459;-81
2023/07/08 06:56:16;;;;;;;7.27;5.63;;;;;;;26.41;41.39;158167.47;4958357;28;20454;-80
2023/07/08 06:58:43;;;;;;;6.47;5.60;;;;;;;26.55;40.86;158202.84;4959043;28;20902;-80
2023/07/08 07:01:09;;;;;;;8.23;5.93;;;;;;;26.56;40.90;158206.75;4962978;28;20466;-80
2023/07/08 07:03:36;;;;;;;6.63;6.00;;;;;;;26.49;41.35;158187.13;4959824;28;20466;-80
2023/07/08 07:06:03;;;;;;;7.07;6.00;;;;;;;26.40;41.12;158164.84;4959592;28;20450;-80
2023/07/08 07:08:31;;;;;;;8.93;6.37;;;;;;;26.30;41.42;158138.66;4974665;28;20450;-80
2023/07/08 07:10:57;;;;;;;6.60;5.30;;;;;;;26.24;41.47;158122.94;4959158;28;20459;-81
2023/07/08 07:13:24;;;;;;;5.60;5.00;;;;;;;26.18;41.36;158105.94;4960641;28;20466;-80
2023/07/08 07:15:51;;;;;;;8.97;6.13;;;;;;;26.10;41.77;158086.25;4959624;28;20962;-81
2023/07/08 07:18:17;;;;;;;7.03;5.80;;;;;;;26.04;42.04;158070.53;4963251;28;20462;-80
2023/07/08 07:20:49;;;;;;;7.90;5.93;;;;;;;25.93;42.04;158043.03;4959699;28;20465;-80
2023/07/08 07:23:16;;;;;;;6.97;4.83;;;;;;;25.90;43.20;158033.84;4974248;28;20513;-80
2023/07/08 07:25:44;;;;;;;8.73;5.60;;;;;;;25.86;42.45;158023.41;4960308;28;20525;-80
2023/07/08 07:28:10;;;;;;;6.30;4.90;;;;;;;25.80;42.73;158009.00;4961211;28;20525;-80
2023/07/08 07:30:37;;;;;;;6.83;5.80;;;;;;;25.79;42.85;158006.38;4977877;28;20804;-81
2023/07/08 07:33:03;;;;;;;6.07;5.47;;;;;;;25.82;43.70;158012.91;4960745;28;21068;-80
2023/07/08 07:35:30;;;;;;;6.07;5.47;;;;;;;25.85;43.61;158020.78;4958402;28;20467;-80
2023/07/08 07:37:56;;;;;;;6.40;5.53;;;;;;;25.89;43.41;158031.25;4975688;28;20470;-80
2023/07/08 07:40:23;;;;;;;6.10;5.47;;;;;;;25.91;43.55;158036.50;4975700;28;20891;-80
2023/07/08 07:42:53;;;;;;;7.43;6.10;;;;;;;25.89;43.83;158031.25;4963034;28;20827;-80
2023/07/08 07:45:22;;;;;;;5.70;4.70;;;;;;;25.87;43.85;158026.00;4958448;28;20459;-80
2023/07/08 07:47:49;;;;;;;5.40;4.90;;;;;;;25.86;44.15;158024.72;4960250;28;20934;-81
2023/07/08 07:50:15;;;;;;;8.30;4.50;;;;;;;25.89;44.50;158031.25;4956947;28;20473;-80
2023/07/08 07:52:42;;;;;;;6.70;4.80;;;;;;;25.96;44.67;158049.59;4960086;28;20458;-81
2023/07/08 07:55:09;;;;;;;6.90;4.90;;;;;;;25.98;44.59;158056.13;4959989;28;20466;-81
2023/07/08 07:57:36;;;;;;;5.90;5.30;;;;;;;26.05;44.67;158073.16;4963265;28;20822;-81
2023/07/08 08:00:04;;;;;;;6.00;4.70;;;;;;;26.30;44.63;158137.34;4957969;28;20491;-80
2023/07/08 08:02:39;;;;;;;4.70;3.73;;;;;;;26.49;44.65;158187.13;4977133;28;20855;-80
2023/07/08 08:05:06;;;;;;;4.37;3.73;;;;;;;26.72;44.34;158246.03;4974305;28;20539;-81
2023/07/08 08:07:33;;;;;;;4.87;4.17;;;;;;;26.88;43.88;158288.00;4974839;28;20462;-80
2023/07/08 08:09:59;;;;;;;5.97;4.00;;;;;;;26.99;43.28;158318.16;4961943;28;21086;-80
2023/07/08 08:12:26;;;;;;;5.20;3.47;;;;;;;27.06;43.73;158335.16;4974921;28;20458;-80
2023/07/08 08:14:52;;;;;;;4.30;3.90;;;;;;;27.05;43.21;158332.56;4960602;28;20545;-80
2023/07/08 08:17:27;;;;;;;5.70;3.50;;;;;;;27.13;43.17;158353.53;4973467;28;20517;-81
2023/07/08 08:19:53;;;;;;;5.67;3.90;;;;;;;27.32;43.52;158403.34;4974708;28;20473;-80
2023/07/08 08:22:23;;;;;;;5.03;3.90;;;;;;;27.50;43.16;158449.25;4961524;28;20537;-81
2023/07/08 08:24:50;;;;;;;4.27;3.87;;;;;;;27.66;42.86;158492.50;4958920;28;20450;-82
2023/07/08 08:27:16;;;;;;;6.17;3.83;;;;;;;27.73;42.73;158510.84;4974470;28;20454;-81
2023/07/08 08:29:43;;;;;;;5.87;3.83;;;;;;;27.74;42.92;158512.16;4973037;28;20458;-81
2023/07/08 08:32:10;;;;;;;4.60;4.10;;;;;;;27.79;42.30;158525.25;4958867;28;20454;-81
2023/07/08 08:34:38;;;;;;;5.43;3.67;;;;;;;27.98;42.59;158573.75;4963384;28;20502;-77
2023/07/08 08:37:05;;;;;;;7.07;4.03;;;;;;;28.24;41.79;158641.97;4974467;28;20463;-77
2023/07/08 08:39:39;;;;;;;4.13;3.70;;;;;;;28.33;41.77;158666.88;4961844;28;20483;-81
2023/07/08 08:45:56;;;;;;;7.10;3.93;;;;;;;28.36;41.55;158674.75;4890838;29;20476;-81
2023/07/08 08:48:24;;;;;;;6.43;4.23;;;;;;;28.65;41.14;158749.53;4937850;28;20993;-81
2023/07/08 08:50:54;;;;;;;4.60;3.13;;;;;;;28.83;39.25;158795.47;4961768;28;20454;-81
2023/07/08 08:53:22;;;;;;;4.23;3.80;;;;;;;28.84;39.85;158799.38;4966229;28;21159;-81
2023/07/08 08:55:53;;;;;;;4.20;3.80;;;;;;;28.78;40.66;158782.38;4976807;28;20494;-82
2023/07/08 08:58:34;;;;;;;4.97;4.03;;;;;;;28.99;40.40;158837.44;4972714;28;20446;-81
2023/07/08 09:01:02;;;;;;;4.83;3.47;;;;;;;29.30;39.45;158918.81;4959557;28;20515;-83
2023/07/08 09:03:37;;;;;;;4.23;3.50;;;;;;;29.67;38.83;159013.28;4957724;28;20446;-81
2023/07/08 09:06:12;;;;;;;4.87;3.83;;;;;;;30.05;38.33;159114.38;4972742;28;20449;-83
2023/07/08 09:08:38;;;;;;;5.53;3.67;;;;;;;30.31;37.42;159180.03;4961072;28;21036;-81
2023/07/08 09:11:16;;;;;;;5.13;3.40;;;;;;;30.43;36.73;159212.88;4972632;28;20454;-82
2023/07/08 09:13:45;;;;;;;4.10;3.70;;;;;;;30.43;37.33;159211.56;4972134;28;20447;-81
2023/07/08 09:16:17;;;;;;;4.30;3.27;;;;;;;30.53;37.12;159237.81;4962747;28;20464;-82
2023/07/08 09:18:59;;;;;;;2.90;2.60;;;;;;;30.70;35.81;159282.47;4958117;28;20442;-81
2023/07/08 09:21:30;;;;;;;3.40;3.00;;;;;;;30.88;36.05;159329.75;4960092;28;20459;-81
2023/07/08 09:24:02;;;;;;;3.70;3.07;;;;;;;30.97;34.96;159352.13;4966201;28;20446;-81
2023/07/08 09:26:31;;;;;;;3.90;3.60;;;;;;;30.95;35.29;159348.16;4963897;28;20461;-81
2023/07/08 09:28:58;;;;;;;4.30;3.60;;;;;;;30.80;35.86;159308.72;4973278;28;20467;-81
2023/07/08 09:31:26;;;;;;;4.27;3.60;;;;;;;30.58;36.32;159251.00;4973553;28;20826;-81
2023/07/08 09:33:54;;;;;;;3.70;3.27;;;;;;;30.45;35.60;159218.13;4972796;28;20541;-82
2023/07/08 09:36:24;;;;;;;4.93;3.40;;;;;;;30.45;36.22;159216.81;4959128;28;20462;-83
2023/07/08 09:38:52;;;;;;;5.00;3.60;;;;;;;30.57;36.10;159249.66;4957449;28;20458;-82
2023/07/08 09:41:34;;;;;;;4.00;3.60;;;;;;;30.17;36.25;159144.59;4957997;28;20974;-81
2023/07/08 09:44:05;;;;;;;4.37;3.90;;;;;;;29.87;37.26;159067.13;4958475;28;20521;-81
2023/07/08 09:46:36;;;;;;;6.43;4.20;;;;;;;30.18;36.89;159147.22;4958307;28;20462;-81
2023/07/08 09:49:11;;;;;;;5.33;3.93;;;;;;;30.34;36.48;159187.91;4971757;28;20707;-81
2023/07/08 09:51:40;;;;;;;4.90;3.87;;;;;;;30.24;36.48;159161.63;4959568;28;20477;-82
2023/07/08 09:54:09;;;;;;;5.40;4.20;;;;;;;30.45;35.59;159216.81;4973762;28;20534;-82
2023/07/08 09:56:36;;;;;;;4.40;3.70;;;;;;;30.60;36.22;159256.22;4974466;28;20553;-82
2023/07/08 09:59:04;;;;;;;4.73;4.17;;;;;;;30.78;36.13;159303.50;4974165;28;20454;-82
2023/07/08 10:01:31;;;;;;;4.47;4.03;;;;;;;30.91;35.88;159337.69;4972720;28;20463;-82
2023/07/08 10:03:59;;;;;;;4.80;4.40;;;;;;;30.36;36.54;159194.53;4957869;28;20806;-81
2023/07/08 10:06:27;;;;;;;5.20;4.43;;;;;;;30.08;37.00;159122.25;4972824;28;20896;-81
2023/07/08 10:08:55;;;;;;;6.83;4.03;;;;;;;29.40;37.90;158943.75;4973520;28;20462;-82
2023/07/08 10:11:27;;;;;;;5.50;4.30;;;;;;;29.01;38.52;158842.69;4972934;28;20966;-82
2023/07/08 10:13:54;;;;;;;6.97;3.83;;;;;;;28.89;39.54;158812.50;4971562;28;20493;-81
2023/07/08 10:16:25;;;;;;;4.43;4.00;;;;;;;29.04;39.23;158849.25;4958286;28;20460;-81
2023/07/08 10:18:51;;;;;;;5.70;4.53;;;;;;;29.05;39.35;158853.16;4958293;28;20446;-81
2023/07/08 10:21:28;;;;;;;5.50;4.13;;;;;;;29.01;39.36;158842.69;4972014;28;20565;-82
2023/07/08 10:24:00;;;;;;;4.77;3.90;;;;;;;29.04;38.95;158849.25;4961004;28;20438;-81
2023/07/08 10:26:29;;;;;;;4.33;3.93;;;;;;;29.10;39.01;158865.00;4975926;28;20586;-81
2023/07/08 10:29:06;;;;;;;4.10;3.50;;;;;;;29.10;38.47;158865.00;4975233;28;20446;-81
2023/07/08 10:31:38;;;;;;;5.13;3.80;;;;;;;29.18;38.71;158885.94;4964144;28;20462;-83
2023/07/08 10:34:14;;;;;;;4.23;3.60;;;;;;;29.22;38.50;158896.50;4975640;28;20497;-81
2023/07/08 10:36:46;;;;;;;4.73;3.50;;;;;;;29.33;37.90;158925.38;4968654;28;20529;-83
2023/07/08 10:39:36;;;;;;;4.40;3.23;;;;;;;29.47;37.83;158962.09;4965511;28;20460;-82
2023/07/08 10:42:09;;;;;;;3.73;3.27;;;;;;;29.68;37.71;159017.19;4966229;28;20454;-81
2023/07/08 10:44:39;;;;;;;4.30;3.20;;;;;;;29.82;37.33;159054.00;4968943;28;20995;-81
2023/07/08 10:47:15;;;;;;;6.00;3.20;;;;;;;29.93;37.51;159082.91;4966020;28;20469;-83
2023/07/08 10:50:01;;;;;;;3.57;3.10;;;;;;;29.91;37.11;159077.66;4976653;28;20530;-82
2023/07/08 10:52:37;;;;;;;4.67;3.27;;;;;;;30.03;37.50;159107.81;4963921;28;20830;-82
2023/07/08 10:55:16;;;;;;;4.77;3.60;;;;;;;30.02;37.16;159106.50;4958754;28;20450;-82
2023/07/08 10:58:02;;;;;;;5.33;3.57;;;;;;;29.98;36.89;159096.00;4944215;28;20458;-82
2023/07/08 11:00:36;;;;;;;4.03;3.13;;;;;;;29.59;37.22;158993.59;4974050;28;20467;-82
2023/07/08 11:03:21;;;;;;;5.07;3.27;;;;;;;29.35;37.75;158930.63;4973950;28;20458;-82
2023/07/08 11:05:51;;;;;;;4.03;3.40;;;;;;;29.58;37.41;158990.97;4975398;28;20446;-82
2023/07/08 11:08:21;;;;;;;3.53;3.23;;;;;;;29.61;37.11;158998.84;4959738;28;20451;-83
2023/07/08 11:10:51;;;;;;;4.00;3.20;;;;;;;29.66;37.21;159010.66;4957822;28;20561;-82
2023/07/08 11:13:20;;;;;;;3.13;2.83;;;;;;;29.71;37.16;159023.75;4958539;28;20464;-78
2023/07/08 11:15:51;;;;;;;6.13;3.47;;;;;;;29.76;36.78;159038.19;4960293;28;20469;-78
2023/07/08 11:18:49;;;;;;;3.50;3.20;;;;;;;29.55;37.78;158984.41;4964134;28;20454;-78
2023/07/08 11:21:18;;;;;;;3.40;2.80;;;;;;;29.67;37.35;159013.28;4958426;28;20500;-78
2023/07/08 11:23:48;;;;;;;3.23;2.80;;;;;;;29.67;36.99;159013.28;4971985;28;20521;-78
2023/07/08 11:26:21;;;;;;;4.03;2.73;;;;;;;29.52;37.60;158975.25;4971062;28;20901;-78
2023/07/08 11:28:50;;;;;;;3.40;2.70;;;;;;;29.45;37.50;158958.16;4959015;28;20825;-78
2023/07/08 11:31:17;;;;;;;3.27;2.87;;;;;;;29.40;37.65;158943.75;4956693;28;20466;-78
2023/07/08 11:33:44;;;;;;;3.63;3.30;;;;;;;29.26;38.04;158906.97;4958603;28;20482;-78
2023/07/08 11:36:11;;;;;;;4.70;2.73;;;;;;;29.13;38.07;158874.16;4988594;28;20459;-78